Time,TemperatureF,DewpointF,PressureIn,WindDirection,WindDirectionDegrees,WindSpeedMPH,WindSpeedGustMPH,Humidity,HourlyPrecipIn,Conditions,Clouds,dailyrainin,SoftwareType,DateUTC
2013-06-01 00:11:00,64.7,49.0,29.89,NW,323,0.0,-999.0,57,-99.99,,,0.00,weatherlink.com 1.10,2013-06-01 07:11:00,
2013-06-01 00:26:00,63.1,49.0,29.89,NW,323,0.0,-999.0,60,-99.99,,,0.00,weatherlink.com 1.10,2013-06-01 07:26:00,
2013-06-01 00:41:00,61.8,48.0,29.89,NW,323,0.0,-999.0,62,-99.99,,,0.00,weatherlink.com 1.10,2013-06-01 07:41:00,
2013-06-01 00:56:00,61.0,48.0,29.89,NW,323,0.0,-999.0,62,-99.99,,,0.00,weatherlink.com 1.10,2013-06-01 07:56:00,
2013-06-01 01:11:00,60.2,48.0,29.89,NW,323,0.0,-999.0,64,-99.99,,,0.00,weatherlink.com 1.10,2013-06-01 08:11:00,
2013-06-01 01:26:00,59.3,48.0,29.89,NW,323,0.0,-999.0,66,-99.99,,,0.00,weatherlink.com 1.10,2013-06-01 08:26:00,
2013-06-01 01:41:00,58.6,48.0,29.89,NW,323,0.0,-999.0,67,-99.99,,,0.00,weatherlink.com 1.10,2013-06-01 08:41:00,
2013-06-01 01:56:00,57.8,47.0,29.89,NW,323,0.0,-999.0,68,-99.99,,,0.00,weatherlink.com 1.10,2013-06-01 08:56:00,
2013-06-01 02:11:00,57.2,47.0,29.89,NW,323,0.0,-999.0,69,-99.99,,,0.00,weatherlink.com 1.10,2013-06-01 09:11:00,
2013-06-01 02:26:00,56.5,47.0,29.89,NW,323,0.0,-999.0,70,-99.99,,,0.00,weatherlink.com 1.10,2013-06-01 09:26:00,
2013-06-01 02:41:00,55.9,47.0,29.88,NW,323,0.0,-999.0,72,-99.99,,,0.00,weatherlink.com 1.10,2013-06-01 09:41:00,
2013-06-01 02:56:00,55.4,46.0,29.88,NW,323,0.0,-999.0,72,-99.99,,,0.00,weatherlink.com 1.10,2013-06-01 09:56:00,
2013-06-01 03:11:00,55.0,46.0,29.88,NW,323,0.0,-999.0,73,-99.99,,,0.00,weatherlink.com 1.10,2013-06-01 10:11:00,
2013-06-01 03:26:00,54.5,46.0,29.87,NW,323,0.0,-999.0,74,-99.99,,,0.00,weatherlink.com 1.10,2013-06-01 10:26:00,
2013-06-01 03:42:00,54.1,46.0,29.87,NW,323,0.0,-999.0,75,-99.99,,,0.00,weatherlink.com 1.10,2013-06-01 10:42:00,
2013-06-01 03:57:00,53.6,46.0,29.87,NW,323,0.0,-999.0,76,-99.99,,,0.00,weatherlink.com 1.10,2013-06-01 10:57:00,
2013-06-01 04:12:00,53.3,46.0,29.86,NW,323,0.0,-999.0,77,-99.99,,,0.00,weatherlink.com 1.10,2013-06-01 11:12:00,
2013-06-01 04:27:00,53.1,46.0,29.86,NW,323,0.0,-999.0,77,-99.99,,,0.00,weatherlink.com 1.10,2013-06-01 11:27:00,
2013-06-01 04:42:00,52.6,46.0,29.86,NW,323,0.0,-999.0,77,-99.99,,,0.00,weatherlink.com 1.10,2013-06-01 11:42:00,
2013-06-01 04:57:00,52.3,46.0,29.86,NW,323,0.0,-999.0,79,-99.99,,,0.00,weatherlink.com 1.10,2013-06-01 11:57:00,
2013-06-01 05:12:00,52.0,46.0,29.86,NW,323,0.0,-999.0,79,-99.99,,,0.00,weatherlink.com 1.10,2013-06-01 12:12:00,
2013-06-01 05:27:00,51.9,46.0,29.86,NW,323,0.0,-999.0,81,-99.99,,,0.00,weatherlink.com 1.10,2013-06-01 12:27:00,
2013-06-01 05:42:00,51.6,46.0,29.86,NW,323,0.0,-999.0,81,-99.99,,,0.00,weatherlink.com 1.10,2013-06-01 12:42:00,
2013-06-01 05:57:00,51.4,46.0,29.86,NW,323,0.0,-999.0,81,-99.99,,,0.00,weatherlink.com 1.10,2013-06-01 12:57:00,
2013-06-01 06:12:00,51.3,46.0,29.86,NW,323,0.0,-999.0,82,-99.99,,,0.00,weatherlink.com 1.10,2013-06-01 13:12:00,
2013-06-01 06:27:00,51.1,45.0,29.86,NW,323,0.0,-999.0,81,-99.99,,,0.00,weatherlink.com 1.10,2013-06-01 13:27:00,
2013-06-01 06:42:00,51.1,46.0,29.87,NW,323,0.0,-999.0,83,-99.99,,,0.00,weatherlink.com 1.10,2013-06-01 13:42:00,
2013-06-01 06:57:00,51.7,47.0,29.87,NW,323,0.0,-999.0,84,-99.99,,,0.00,weatherlink.com 1.10,2013-06-01 13:57:00,
2013-06-01 07:12:00,53.3,49.0,29.87,NW,324,0.0,-999.0,85,-99.99,,,0.00,weatherlink.com 1.10,2013-06-01 14:12:00,
2013-06-01 07:27:00,55.7,49.0,29.87,North,5,0.0,-999.0,79,-99.99,,,0.00,weatherlink.com 1.10,2013-06-01 14:27:00,
2013-06-01 07:42:00,58.7,49.0,29.87,North,5,0.0,-999.0,69,-99.99,,,0.00,weatherlink.com 1.10,2013-06-01 14:42:00,
2013-06-01 07:57:00,62.0,48.0,29.87,NNE,24,0.0,-999.0,61,-99.99,,,0.00,weatherlink.com 1.10,2013-06-01 14:57:00,
2013-06-01 08:12:00,64.8,49.0,29.87,NNE,20,0.0,-999.0,57,-99.99,,,0.00,weatherlink.com 1.10,2013-06-01 15:12:00,
2013-06-01 08:27:00,66.9,50.0,29.87,East,84,0.0,-999.0,54,-99.99,,,0.00,weatherlink.com 1.10,2013-06-01 15:27:00,
2013-06-01 08:42:00,68.8,49.0,29.87,East,84,0.0,-999.0,50,-99.99,,,0.00,weatherlink.com 1.10,2013-06-01 15:42:00,
2013-06-01 08:57:00,70.8,50.0,29.87,East,84,0.0,-999.0,48,-99.99,,,0.00,weatherlink.com 1.10,2013-06-01 15:57:00,
2013-06-01 09:12:00,72.7,51.0,29.87,SSW,199,0.0,-999.0,47,-99.99,,,0.00,weatherlink.com 1.10,2013-06-01 16:12:00,
2013-06-01 09:27:00,74.4,50.0,29.86,SSE,155,3.0,-999.0,43,-99.99,,,0.00,weatherlink.com 1.10,2013-06-01 16:27:00,
2013-06-01 09:42:00,75.4,52.0,29.86,SE,146,0.0,-999.0,44,-99.99,,,0.00,weatherlink.com 1.10,2013-06-01 16:42:00,
2013-06-01 09:57:00,76.7,52.0,29.86,SSE,147,0.0,-999.0,42,-99.99,,,0.00,weatherlink.com 1.10,2013-06-01 16:57:00,
2013-06-01 10:12:00,78.1,52.0,29.85,SSE,147,0.0,-999.0,40,-99.99,,,0.00,weatherlink.com 1.10,2013-06-01 17:12:00,
2013-06-01 10:27:00,79.4,51.0,29.84,SSE,155,0.0,-999.0,37,-99.99,,,0.00,weatherlink.com 1.10,2013-06-01 17:27:00,
2013-06-01 10:42:00,80.7,52.0,29.84,SSE,147,0.0,-999.0,37,-99.99,,,0.00,weatherlink.com 1.10,2013-06-01 17:42:00,
2013-06-01 10:57:00,82.0,55.0,29.84,ESE,122,0.0,-999.0,39,-99.99,,,0.00,weatherlink.com 1.10,2013-06-01 17:57:00,
2013-06-01 11:12:00,83.6,54.0,29.84,SSE,163,0.0,-999.0,36,-99.99,,,0.00,weatherlink.com 1.10,2013-06-01 18:12:00,
2013-06-01 11:27:00,85.1,52.0,29.83,SSE,153,0.0,-999.0,32,-99.99,,,0.00,weatherlink.com 1.10,2013-06-01 18:27:00,
2013-06-01 11:43:00,87.0,53.0,29.82,SSE,153,0.0,-999.0,31,-99.99,,,0.00,weatherlink.com 1.10,2013-06-01 18:43:00,
2013-06-01 11:58:00,88.6,52.0,29.82,East,87,0.0,-999.0,28,-99.99,,,0.00,weatherlink.com 1.10,2013-06-01 18:58:00,
2013-06-01 12:13:00,90.1,52.0,29.82,East,90,0.0,-999.0,27,-99.99,,,0.00,weatherlink.com 1.10,2013-06-01 19:13:00,
2013-06-01 12:28:00,91.4,55.0,29.81,SE,133,0.0,-999.0,29,-99.99,,,0.00,weatherlink.com 1.10,2013-06-01 19:28:00,
2013-06-01 12:43:00,92.5,51.0,29.81,West,268,0.0,-999.0,24,-99.99,,,0.00,weatherlink.com 1.10,2013-06-01 19:43:00,
2013-06-01 12:59:00,94.3,50.0,29.80,NNW,346,0.0,-999.0,22,-99.99,,,0.00,weatherlink.com 1.10,2013-06-01 19:59:00,
2013-06-01 13:13:00,96.1,50.0,29.79,ENE,71,0.0,-999.0,21,-99.99,,,0.00,weatherlink.com 1.10,2013-06-01 20:13:00,
2013-06-01 13:28:00,97.3,51.0,29.79,NNW,335,0.0,-999.0,21,-99.99,,,0.00,weatherlink.com 1.10,2013-06-01 20:28:00,
2013-06-01 13:43:00,97.1,50.0,29.78,WNW,301,2.0,-999.0,20,-99.99,,,0.00,weatherlink.com 1.10,2013-06-01 20:43:00,
2013-06-01 13:58:00,96.8,51.0,29.78,WNW,283,0.0,-999.0,21,-99.99,,,0.00,weatherlink.com 1.10,2013-06-01 20:58:00,
2013-06-01 14:13:00,96.6,49.0,29.78,WNW,286,3.0,-999.0,20,-99.99,,,0.00,weatherlink.com 1.10,2013-06-01 21:13:00,
2013-06-01 14:28:00,96.6,51.0,29.78,WSW,241,0.0,-999.0,21,-99.99,,,0.00,weatherlink.com 1.10,2013-06-01 21:28:00,
2013-06-01 14:43:00,95.9,49.0,29.78,WSW,258,0.0,-999.0,20,-99.99,,,0.00,weatherlink.com 1.10,2013-06-01 21:43:00,
2013-06-01 14:58:00,95.6,49.0,29.77,WNW,296,1.0,-999.0,20,-99.99,,,0.00,weatherlink.com 1.10,2013-06-01 21:58:00,
2013-06-01 15:13:00,96.1,50.0,29.76,WSW,258,0.0,-999.0,21,-99.99,,,0.00,weatherlink.com 1.10,2013-06-01 22:13:00,
2013-06-01 15:28:00,95.9,54.0,29.76,SW,232,0.0,-999.0,24,-99.99,,,0.00,weatherlink.com 1.10,2013-06-01 22:28:00,
2013-06-01 15:43:00,95.4,51.0,29.75,West,279,2.0,-999.0,22,-99.99,,,0.00,weatherlink.com 1.10,2013-06-01 22:43:00,
2013-06-01 15:58:00,94.9,53.0,29.75,West,274,0.0,-999.0,24,-99.99,,,0.00,weatherlink.com 1.10,2013-06-01 22:58:00,
2013-06-01 16:13:00,96.3,54.0,29.75,West,274,0.0,-999.0,24,-99.99,,,0.00,weatherlink.com 1.10,2013-06-01 23:13:00,
2013-06-01 16:28:00,97.1,52.0,29.75,West,278,0.0,-999.0,22,-99.99,,,0.00,weatherlink.com 1.10,2013-06-01 23:28:00,
2013-06-01 16:43:00,96.6,49.0,29.74,NW,319,0.0,-999.0,20,-99.99,,,0.00,weatherlink.com 1.10,2013-06-01 23:43:00,
2013-06-01 16:58:00,94.5,50.0,29.74,NW,305,0.0,-999.0,22,-99.99,,,0.00,weatherlink.com 1.10,2013-06-01 23:58:00,
2013-06-01 17:13:00,93.8,53.0,29.74,WNW,282,0.0,-999.0,25,-99.99,,,0.00,weatherlink.com 1.10,2013-06-02 00:13:00,
2013-06-01 17:28:00,94.7,54.0,29.73,West,259,0.0,-999.0,25,-99.99,,,0.00,weatherlink.com 1.10,2013-06-02 00:28:00,
2013-06-01 17:43:00,95.4,51.0,29.73,NW,318,0.0,-999.0,22,-99.99,,,0.00,weatherlink.com 1.10,2013-06-02 00:43:00,
2013-06-01 17:58:00,94.7,52.0,29.72,NW,326,0.0,-999.0,23,-99.99,,,0.00,weatherlink.com 1.10,2013-06-02 00:58:00,
2013-06-01 18:13:00,93.2,50.0,29.72,NW,315,0.0,-999.0,23,-99.99,,,0.00,weatherlink.com 1.10,2013-06-02 01:13:00,
2013-06-01 18:28:00,92.3,48.0,29.72,NW,317,0.0,-999.0,22,-99.99,,,0.00,weatherlink.com 1.10,2013-06-02 01:28:00,
2013-06-01 18:43:00,91.0,48.0,29.72,NW,317,0.0,-999.0,23,-99.99,,,0.00,weatherlink.com 1.10,2013-06-02 01:43:00,
2013-06-01 18:58:00,89.3,48.0,29.72,NW,317,0.0,-999.0,24,-99.99,,,0.00,weatherlink.com 1.10,2013-06-02 01:58:00,
2013-06-01 19:13:00,87.0,47.0,29.72,NW,317,0.0,-999.0,25,-99.99,,,0.00,weatherlink.com 1.10,2013-06-02 02:13:00,
2013-06-01 19:28:00,85.1,47.0,29.72,NW,317,0.0,-999.0,26,-99.99,,,0.00,weatherlink.com 1.10,2013-06-02 02:28:00,
2013-06-01 19:43:00,84.0,48.0,29.72,NW,317,0.0,-999.0,28,-99.99,,,0.00,weatherlink.com 1.10,2013-06-02 02:43:00,
2013-06-01 19:58:00,82.4,46.0,29.72,NW,317,0.0,-999.0,28,-99.99,,,0.00,weatherlink.com 1.10,2013-06-02 02:58:00,
2013-06-01 20:13:00,81.4,46.0,29.72,NW,317,0.0,-999.0,29,-99.99,,,0.00,weatherlink.com 1.10,2013-06-02 03:13:00,
2013-06-01 20:28:00,80.5,46.0,29.72,NW,317,0.0,-999.0,30,-99.99,,,0.00,weatherlink.com 1.10,2013-06-02 03:28:00,
2013-06-01 20:43:00,79.2,47.0,29.72,NW,317,0.0,-999.0,32,-99.99,,,0.00,weatherlink.com 1.10,2013-06-02 03:43:00,
2013-06-01 20:58:00,78.3,48.0,29.73,NW,317,0.0,-999.0,34,-99.99,,,0.00,weatherlink.com 1.10,2013-06-02 03:58:00,
2013-06-01 21:13:00,77.0,49.0,29.73,NW,317,0.0,-999.0,37,-99.99,,,0.00,weatherlink.com 1.10,2013-06-02 04:13:00,
2013-06-01 21:28:00,75.4,47.0,29.73,NW,317,0.0,-999.0,37,-99.99,,,0.00,weatherlink.com 1.10,2013-06-02 04:28:00,
2013-06-01 21:43:00,74.0,48.0,29.73,NW,317,0.0,-999.0,40,-99.99,,,0.00,weatherlink.com 1.10,2013-06-02 04:43:00,
2013-06-01 21:58:00,73.0,46.0,29.73,NW,317,0.0,-999.0,38,-99.99,,,0.00,weatherlink.com 1.10,2013-06-02 04:58:00,
2013-06-01 22:13:00,72.3,46.0,29.73,NW,317,0.0,-999.0,39,-99.99,,,0.00,weatherlink.com 1.10,2013-06-02 05:13:00,
2013-06-01 22:28:00,72.5,45.0,29.73,NW,316,0.0,-999.0,38,-99.99,,,0.00,weatherlink.com 1.10,2013-06-02 05:28:00,
2013-06-01 22:43:00,72.3,44.0,29.74,NW,316,0.0,-999.0,37,-99.99,,,0.00,weatherlink.com 1.10,2013-06-02 05:43:00,
2013-06-01 22:58:00,72.0,45.0,29.73,NW,316,0.0,-999.0,38,-99.99,,,0.00,weatherlink.com 1.10,2013-06-02 05:58:00,
2013-06-01 23:13:00,71.8,45.0,29.73,NW,316,0.0,-999.0,38,-99.99,,,0.00,weatherlink.com 1.10,2013-06-02 06:13:00,
2013-06-01 23:28:00,71.3,45.0,29.73,NW,316,0.0,-999.0,39,-99.99,,,0.00,weatherlink.com 1.10,2013-06-02 06:28:00,
2013-06-01 23:44:00,70.4,45.0,29.73,NW,316,0.0,-999.0,40,-99.99,,,0.00,weatherlink.com 1.10,2013-06-02 06:44:00,
2013-06-01 23:59:00,69.6,45.0,29.73,NW,316,0.0,-999.0,41,-99.99,,,0.00,weatherlink.com 1.10,2013-06-02 06:59:00,